Terminal Aerodrome Forecast
Issued by NWS Atlanta, GA

Home | Current Version | Previous Version | Text Only | Print | Product List | Glossary On
Versions: 1 2 3 4 5 6 7 8 9 10 11 12 13 14 15 16 17 18 19 20 21 22 23 24 25 26 27 28 29 30 31 32 33 34 35 36 37 38 39 40
000
FTUS42 KFFC 291956 AAA
TAFATL
TAF AMD
KATL 291956Z 2920/3024 20010G17KT P6SM BKN140 BKN200
     FM292300 20010KT P6SM BKN090
     FM300300 23008KT P6SM VCSH BKN025 OVC080
     FM300600 32012G24KT P6SM OVC040
     FM301200 33014G24KT P6SM SCT045=

USA.gov is the U.S. government's official web portal to all federal, state and local government web resources and services.